Time;durP1;ratioP1;P1;durP2;ratioP2;P2;SDS_P1;SDS_P2;PMS_P1;PMS_P2;Temp;Humidity;BMP_temperature;BMP_pressure;BME280_temperature;BME280_humidity;BME280_pressure;Samples;Min_cycle;Max_cycle;Signal;HPM_P1;HPM_P2
2022/03/14 00:00:27;;;;;;;37.67;21.40;;;;;;;;;;5075382;28;20269;-54
2022/03/14 00:03:06;;;;;;;51.50;20.10;;;;;;;;;;5075085;28;20269;-55
2022/03/14 00:05:33;;;;;;;47.73;19.37;;;;;;;;;;5075430;28;20200;-56
2022/03/14 00:08:01;;;;;;;38.83;16.90;;;;;;;;;;5075484;28;20204;-53
2022/03/14 00:10:28;;;;;;;33.97;15.77;;;;;;;;;;5075435;28;20207;-55
2022/03/14 00:12:58;;;;;;;42.83;17.70;;;;;;;;;;5075165;28;20207;-51
2022/03/14 00:15:33;;;;;;;40.73;16.90;;;;;;;;;;5075191;28;20636;-54
2022/03/14 00:18:01;;;;;;;33.37;15.30;;;;;;;;;;5075013;28;20203;-53
2022/03/14 00:20:28;;;;;;;76.03;40.33;;;;;;;;;;5075096;28;20254;-53
2022/03/14 00:22:59;;;;;;;123.30;35.83;;;;;;;;;;5075118;28;20302;-52
2022/03/14 00:25:26;;;;;;;117.80;32.23;;;;;;;;;;5074715;28;20660;-51
2022/03/14 00:27:54;;;;;;;83.13;28.57;;;;;;;;;;5074827;28;20282;-54
2022/03/14 00:30:22;;;;;;;68.37;24.53;;;;;;;;;;5074915;28;20297;-53
2022/03/14 00:32:49;;;;;;;56.33;22.63;;;;;;;;;;5075061;28;20191;-55
2022/03/14 00:35:16;;;;;;;79.20;27.30;;;;;;;;;;5075115;28;20541;-53
2022/03/14 00:37:43;;;;;;;89.13;28.40;;;;;;;;;;5074698;28;20223;-55
2022/03/14 00:40:11;;;;;;;244.20;181.17;;;;;;;;;;5074770;28;20266;-53
2022/03/14 00:42:40;;;;;;;76.03;38.30;;;;;;;;;;5058008;28;20200;-53
2022/03/14 00:45:08;;;;;;;64.77;25.00;;;;;;;;;;5074873;28;20200;-54
2022/03/14 00:47:35;;;;;;;63.87;24.47;;;;;;;;;;5074562;28;20602;-54
2022/03/14 00:50:02;;;;;;;46.10;22.00;;;;;;;;;;5074530;28;20234;-55
2022/03/14 00:52:29;;;;;;;40.70;18.80;;;;;;;;;;5074492;28;20260;-53
2022/03/14 00:54:57;;;;;;;45.03;19.10;;;;;;;;;;5074657;28;20230;-52
2022/03/14 00:57:24;;;;;;;43.37;20.07;;;;;;;;;;5074566;28;20223;-55
2022/03/14 00:59:52;;;;;;;51.00;21.07;;;;;;;;;;5074818;28;20203;-55
2022/03/14 01:02:19;;;;;;;58.07;31.60;;;;;;;;;;5074501;28;20558;-53
2022/03/14 01:04:47;;;;;;;98.67;38.87;;;;;;;;;;5074613;28;20205;-54
2022/03/14 01:07:14;;;;;;;118.33;34.23;;;;;;;;;;5074987;28;20219;-54
2022/03/14 01:09:41;;;;;;;89.90;27.63;;;;;;;;;;5074839;28;20219;-53
2022/03/14 01:12:08;;;;;;;72.83;26.57;;;;;;;;;;5074661;28;20214;-56
2022/03/14 01:14:36;;;;;;;77.97;27.50;;;;;;;;;;5074641;28;20223;-53
2022/03/14 01:17:03;;;;;;;67.23;25.17;;;;;;;;;;5074615;28;20207;-54
2022/03/14 01:19:30;;;;;;;89.67;28.63;;;;;;;;;;5074452;28;20202;-54
2022/03/14 01:21:57;;;;;;;90.63;28.20;;;;;;;;;;5075564;28;20223;-54
2022/03/14 01:24:24;;;;;;;84.57;42.67;;;;;;;;;;5061006;28;20306;-54
2022/03/14 01:26:52;;;;;;;157.73;40.47;;;;;;;;;;5078163;28;20633;-52
2022/03/14 01:29:20;;;;;;;112.33;32.33;;;;;;;;;;5078116;28;20230;-55
2022/03/14 01:31:48;;;;;;;126.73;36.93;;;;;;;;;;5078224;28;20284;-53
2022/03/14 01:34:15;;;;;;;136.80;38.03;;;;;;;;;;5078083;28;20203;-55
2022/03/14 01:36:42;;;;;;;131.07;37.97;;;;;;;;;;5077986;28;20597;-53
2022/03/14 01:39:09;;;;;;;153.80;38.63;;;;;;;;;;5078330;28;20245;-56
2022/03/14 01:41:36;;;;;;;332.33;191.10;;;;;;;;;;5077894;28;20654;-53
2022/03/14 01:44:04;;;;;;;138.03;81.37;;;;;;;;;;5078004;28;20211;-52
2022/03/14 01:46:32;;;;;;;98.97;37.13;;;;;;;;;;5077952;28;20234;-54
2022/03/14 01:49:00;;;;;;;71.83;27.37;;;;;;;;;;5077744;28;20199;-56
2022/03/14 01:51:27;;;;;;;52.93;22.70;;;;;;;;;;5077732;28;20227;-55
2022/03/14 01:53:55;;;;;;;56.67;23.40;;;;;;;;;;5078230;28;20246;-55
2022/03/14 01:56:23;;;;;;;54.90;23.33;;;;;;;;;;5078195;28;20203;-51
2022/03/14 01:58:52;;;;;;;76.57;29.20;;;;;;;;;;5060186;28;20278;-55
2022/03/14 02:01:20;;;;;;;78.03;29.00;;;;;;;;;;5060604;28;20293;-53
2022/03/14 02:03:50;;;;;;;238.43;130.00;;;;;;;;;;5078145;28;20235;-56
2022/03/14 02:06:18;;;;;;;155.47;53.30;;;;;;;;;;5077825;28;20211;-52
2022/03/14 02:08:45;;;;;;;148.07;38.53;;;;;;;;;;5077410;28;20203;-56
2022/03/14 02:11:12;;;;;;;119.83;35.07;;;;;;;;;;5077851;28;20274;-52
2022/03/14 02:13:39;;;;;;;77.30;28.43;;;;;;;;;;5077410;28;20213;-53
2022/03/14 02:16:07;;;;;;;72.60;27.60;;;;;;;;;;5077547;28;20253;-51
2022/03/14 02:18:34;;;;;;;61.13;25.00;;;;;;;;;;5077248;28;20200;-54
2022/03/14 02:21:01;;;;;;;63.23;25.30;;;;;;;;;;5077379;28;20258;-53
2022/03/14 02:23:28;;;;;;;57.17;23.60;;;;;;;;;;5060203;28;20199;-53
2022/03/14 02:25:55;;;;;;;365.93;179.80;;;;;;;;;;5077313;28;20203;-54
2022/03/14 02:28:23;;;;;;;172.23;47.60;;;;;;;;;;5077300;28;20207;-53
2022/03/14 02:30:53;;;;;;;81.90;26.70;;;;;;;;;;5077568;28;20230;-52
2022/03/14 02:33:20;;;;;;;69.80;26.97;;;;;;;;;;5076248;28;20533;-54
2022/03/14 02:35:49;;;;;;;101.10;32.23;;;;;;;;;;5076866;28;20235;-54
2022/03/14 02:38:17;;;;;;;77.33;27.47;;;;;;;;;;5076857;28;20650;-56
2022/03/14 02:40:46;;;;;;;71.90;25.27;;;;;;;;;;5077433;28;20226;-52
2022/03/14 02:43:22;;;;;;;850.07;546.97;;;;;;;;;;5076692;28;20290;-53
2022/03/14 02:45:51;;;;;;;232.13;137.73;;;;;;;;;;5077287;28;20558;-54
2022/03/14 02:48:23;;;;;;;157.90;47.63;;;;;;;;;;5076740;28;20199;-55
2022/03/14 02:50:53;;;;;;;82.10;28.33;;;;;;;;;;5077088;28;20254;-53
2022/03/14 02:53:20;;;;;;;61.53;24.80;;;;;;;;;;5076777;28;20695;-55
2022/03/14 02:55:47;;;;;;;56.27;23.90;;;;;;;;;;5076599;28;20203;-52
2022/03/14 02:58:15;;;;;;;48.63;21.73;;;;;;;;;;5076475;28;20238;-52
2022/03/14 03:00:42;;;;;;;49.63;21.67;;;;;;;;;;5076487;28;20237;-55
2022/03/14 03:03:11;;;;;;;53.57;21.37;;;;;;;;;;5076146;28;20618;-53
2022/03/14 03:05:43;;;;;;;155.60;72.03;;;;;;;;;;5076215;28;20544;-55
2022/03/14 03:08:11;;;;;;;59.07;23.37;;;;;;;;;;5076342;28;20207;-55
2022/03/14 03:10:41;;;;;;;61.07;21.73;;;;;;;;;;5076524;28;20207;-55
2022/03/14 03:13:11;;;;;;;57.17;21.57;;;;;;;;;;5076477;28;20286;-52
2022/03/14 03:15:38;;;;;;;53.90;20.87;;;;;;;;;;5076086;28;20656;-54
2022/03/14 03:18:06;;;;;;;52.33;20.37;;;;;;;;;;5076346;28;20235;-54
2022/03/14 03:20:33;;;;;;;50.93;19.97;;;;;;;;;;5075932;28;20276;-51
2022/03/14 03:23:03;;;;;;;58.73;20.27;;;;;;;;;;5075990;28;20207;-55
2022/03/14 03:25:30;;;;;;;324.20;200.43;;;;;;;;;;5075933;28;20233;-52
2022/03/14 03:27:57;;;;;;;104.17;52.43;;;;;;;;;;5076254;28;20606;-50
2022/03/14 03:30:24;;;;;;;52.70;20.40;;;;;;;;;;5076022;28;20218;-52
2022/03/14 03:32:53;;;;;;;41.03;17.83;;;;;;;;;;5075860;28;20246;-55
2022/03/14 03:35:20;;;;;;;38.63;18.33;;;;;;;;;;5075789;28;20195;-55
2022/03/14 03:37:47;;;;;;;29.77;15.73;;;;;;;;;;5076285;28;20298;-52
2022/03/14 03:40:14;;;;;;;32.27;16.70;;;;;;;;;;5076027;28;20219;-51
2022/03/14 03:42:42;;;;;;;36.73;17.53;;;;;;;;;;5075828;28;20230;-55
2022/03/14 03:45:09;;;;;;;37.73;18.03;;;;;;;;;;5075588;28;20203;-55
2022/03/14 03:47:36;;;;;;;61.17;27.67;;;;;;;;;;5075401;28;20235;-55
2022/03/14 03:50:03;;;;;;;57.93;20.13;;;;;;;;;;5075715;28;20252;-57
2022/03/14 03:52:30;;;;;;;72.63;22.23;;;;;;;;;;5075644;28;20692;-54
2022/03/14 03:54:58;;;;;;;47.37;20.03;;;;;;;;;;5075681;28;20245;-52
2022/03/14 03:57:25;;;;;;;53.47;21.13;;;;;;;;;;5075622;28;20233;-52
2022/03/14 03:59:52;;;;;;;63.20;23.23;;;;;;;;;;5075209;28;20601;-52
2022/03/14 04:02:19;;;;;;;64.17;25.60;;;;;;;;;;5075041;28;20274;-56
2022/03/14 04:04:48;;;;;;;413.90;241.87;;;;;;;;;;5075280;28;20237;-52
2022/03/14 04:07:18;;;;;;;114.00;87.67;;;;;;;;;;5075575;28;20276;-54
2022/03/14 04:09:55;;;;;;;107.93;33.10;;;;;;;;;;5075347;28;20225;-55
2022/03/14 04:12:24;;;;;;;87.00;26.63;;;;;;;;;;5075105;28;20672;-54
2022/03/14 04:14:52;;;;;;;46.97;20.47;;;;;;;;;;5075173;28;20574;-51
2022/03/14 04:17:19;;;;;;;34.60;16.30;;;;;;;;;;5074921;28;20270;-56
2022/03/14 04:19:48;;;;;;;35.60;16.90;;;;;;;;;;5074847;28;20219;-52
2022/03/14 04:22:15;;;;;;;42.67;17.77;;;;;;;;;;5074692;28;20223;-51
2022/03/14 04:24:43;;;;;;;43.50;17.30;;;;;;;;;;5074720;28;20534;-57
2022/03/14 04:27:09;;;;;;;115.37;48.80;;;;;;;;;;5074768;28;20214;-56
2022/03/14 04:29:37;;;;;;;52.13;35.07;;;;;;;;;;5074557;28;20558;-56
2022/03/14 04:32:05;;;;;;;80.10;24.97;;;;;;;;;;5074683;28;20281;-57
2022/03/14 04:34:32;;;;;;;70.77;22.07;;;;;;;;;;5074668;28;20204;-55
2022/03/14 04:36:59;;;;;;;41.20;17.93;;;;;;;;;;5074602;28;20233;-57
2022/03/14 04:39:28;;;;;;;43.33;18.10;;;;;;;;;;5074350;28;20222;-52
2022/03/14 04:41:56;;;;;;;36.80;16.80;;;;;;;;;;5074606;28;20254;-53
2022/03/14 04:44:23;;;;;;;47.63;18.30;;;;;;;;;;5074623;28;20210;-53
2022/03/14 04:46:51;;;;;;;47.40;17.43;;;;;;;;;;5074315;28;20204;-55
2022/03/14 04:49:18;;;;;;;210.47;71.87;;;;;;;;;;5074861;28;20219;-54
2022/03/14 04:51:49;;;;;;;133.50;33.53;;;;;;;;;;5074471;28;20583;-52
2022/03/14 04:54:16;;;;;;;68.20;21.63;;;;;;;;;;5074549;28;20345;-52
2022/03/14 04:56:47;;;;;;;61.80;20.70;;;;;;;;;;5073900;28;20668;-51
2022/03/14 04:59:14;;;;;;;57.90;20.97;;;;;;;;;;5056951;28;20239;-60
2022/03/14 05:01:41;;;;;;;69.83;22.43;;;;;;;;;;5064367;28;20261;-55
2022/03/14 05:04:08;;;;;;;63.30;22.40;;;;;;;;;;5070616;28;20269;-56
2022/03/14 05:06:36;;;;;;;200.93;155.27;;;;;;;;;;5066958;28;20234;-54
2022/03/14 05:09:03;;;;;;;107.37;75.57;;;;;;;;;;5067302;28;20293;-50
2022/03/14 05:11:30;;;;;;;115.37;32.27;;;;;;;;;;5065498;28;20313;-53
2022/03/14 05:13:57;;;;;;;79.47;24.33;;;;;;;;;;5068982;28;20308;-52
2022/03/14 05:16:25;;;;;;;48.20;20.63;;;;;;;;;;5059231;28;20227;-54
2022/03/14 05:18:52;;;;;;;32.67;15.70;;;;;;;;;;5065394;28;20315;-53
2022/03/14 05:21:19;;;;;;;36.87;17.00;;;;;;;;;;5065029;28;20313;-55
2022/03/14 05:23:46;;;;;;;45.93;19.23;;;;;;;;;;5070083;28;20251;-55
2022/03/14 05:26:14;;;;;;;85.23;30.87;;;;;;;;;;5053745;28;20247;-54
2022/03/14 05:28:41;;;;;;;106.40;94.87;;;;;;;;;;5052770;28;20242;-54
2022/03/14 05:31:08;;;;;;;84.33;27.77;;;;;;;;;;5035828;28;20239;-54
2022/03/14 05:33:38;;;;;;;55.37;19.87;;;;;;;;;;5053098;28;20260;-56
2022/03/14 05:36:05;;;;;;;48.60;19.07;;;;;;;;;;5053927;28;20262;-59
2022/03/14 05:38:32;;;;;;;38.83;16.70;;;;;;;;;;5061159;28;20235;-55
2022/03/14 05:41:00;;;;;;;45.23;19.60;;;;;;;;;;5072296;28;20222;-55
2022/03/14 05:43:27;;;;;;;41.83;18.10;;;;;;;;;;5070072;28;20246;-51
2022/03/14 05:45:54;;;;;;;58.87;20.33;;;;;;;;;;5068889;28;20227;-59
2022/03/14 05:48:21;;;;;;;171.43;55.27;;;;;;;;;;5072994;28;20247;-58
2022/03/14 05:50:48;;;;;;;84.53;36.30;;;;;;;;;;5071277;28;20611;-58
2022/03/14 05:53:18;;;;;;;106.60;28.03;;;;;;;;;;5071501;28;20211;-60
2022/03/14 05:55:45;;;;;;;68.53;24.13;;;;;;;;;;5071020;28;20247;-59
2022/03/14 05:58:12;;;;;;;71.67;23.97;;;;;;;;;;5071319;28;20215;-58
2022/03/14 06:00:40;;;;;;;65.67;21.40;;;;;;;;;;5071929;28;20223;-63
2022/03/14 06:03:09;;;;;;;41.60;16.73;;;;;;;;;;5069651;28;20235;-58
2022/03/14 06:05:36;;;;;;;79.23;23.60;;;;;;;;;;5071590;28;20220;-57
2022/03/14 06:08:03;;;;;;;71.40;22.20;;;;;;;;;;5073737;28;20582;-58
2022/03/14 06:10:31;;;;;;;106.10;95.83;;;;;;;;;;5076353;28;20704;-59
2022/03/14 06:12:59;;;;;;;41.47;18.13;;;;;;;;;;5076128;28;20611;-59
2022/03/14 06:15:26;;;;;;;62.10;20.03;;;;;;;;;;5076242;28;20227;-59
2022/03/14 06:17:53;;;;;;;51.00;19.17;;;;;;;;;;5077017;28;20545;-69
2022/03/14 06:20:20;;;;;;;32.97;15.30;;;;;;;;;;5076366;28;20219;-59
2022/03/14 06:22:47;;;;;;;48.77;18.93;;;;;;;;;;5076902;28;20239;-57
2022/03/14 06:25:17;;;;;;;26.57;13.83;;;;;;;;;;5077110;28;20526;-56
2022/03/14 06:27:46;;;;;;;35.60;15.03;;;;;;;;;;5077523;28;20279;-57
2022/03/14 06:30:14;;;;;;;31.70;14.60;;;;;;;;;;5077451;28;20228;-57
2022/03/14 06:32:43;;;;;;;27.67;14.60;;;;;;;;;;5077328;28;20595;-55
2022/03/14 06:35:12;;;;;;;82.20;23.00;;;;;;;;;;5077215;28;20282;-56
2022/03/14 06:37:40;;;;;;;35.30;15.53;;;;;;;;;;5077049;28;20200;-55
2022/03/14 06:40:07;;;;;;;33.60;15.07;;;;;;;;;;5076983;28;20226;-56
2022/03/14 06:42:41;;;;;;;41.60;16.60;;;;;;;;;;5077010;28;20238;-55
2022/03/14 06:45:10;;;;;;;35.23;15.73;;;;;;;;;;5077171;28;20231;-54
2022/03/14 06:47:38;;;;;;;47.70;18.83;;;;;;;;;;5077016;28;20195;-56
2022/03/14 06:50:06;;;;;;;61.83;22.80;;;;;;;;;;5077187;28;20214;-54
2022/03/14 06:52:34;;;;;;;135.87;86.30;;;;;;;;;;5076693;28;20649;-55
2022/03/14 06:55:04;;;;;;;138.07;33.93;;;;;;;;;;5076749;28;20529;-55
2022/03/14 06:57:32;;;;;;;92.07;26.17;;;;;;;;;;5076997;28;20215;-55
2022/03/14 06:59:59;;;;;;;68.70;22.33;;;;;;;;;;5076431;28;20223;-56
2022/03/14 07:02:29;;;;;;;59.30;20.17;;;;;;;;;;5076621;28;20235;-55
2022/03/14 07:04:58;;;;;;;64.70;21.87;;;;;;;;;;5076563;28;20586;-56
2022/03/14 07:07:25;;;;;;;70.83;21.50;;;;;;;;;;5076530;28;20260;-53
2022/03/14 07:09:52;;;;;;;95.93;26.87;;;;;;;;;;5072831;28;20199;-56
2022/03/14 07:12:20;;;;;;;482.63;231.30;;;;;;;;;;5076234;28;20231;-54
2022/03/14 07:14:47;;;;;;;152.17;111.43;;;;;;;;;;5067866;28;20238;-55
2022/03/14 07:17:14;;;;;;;78.40;25.60;;;;;;;;;;5065635;28;20619;-54
2022/03/14 07:19:45;;;;;;;66.53;22.60;;;;;;;;;;5055994;28;20227;-54
2022/03/14 07:22:19;;;;;;;34.50;16.67;;;;;;;;;;5056163;28;20228;-55
2022/03/14 07:24:53;;;;;;;46.73;19.53;;;;;;;;;;5059103;28;20501;-53
2022/03/14 07:27:20;;;;;;;40.00;16.43;;;;;;;;;;5076191;28;20274;-54
2022/03/14 07:29:47;;;;;;;50.40;18.37;;;;;;;;;;5076024;28;20203;-55
2022/03/14 07:32:15;;;;;;;63.87;22.47;;;;;;;;;;5076172;28;20222;-57
2022/03/14 07:34:42;;;;;;;143.80;62.67;;;;;;;;;;5076060;28;20199;-55
2022/03/14 07:37:09;;;;;;;66.03;23.13;;;;;;;;;;5075940;28;20199;-56
2022/03/14 07:39:36;;;;;;;92.53;23.80;;;;;;;;;;5075808;28;20614;-55
2022/03/14 07:42:03;;;;;;;76.97;24.80;;;;;;;;;;5064557;28;20282;-55
2022/03/14 07:44:32;;;;;;;87.07;24.20;;;;;;;;;;5038742;28;20204;-55
2022/03/14 07:46:59;;;;;;;82.77;25.47;;;;;;;;;;5056036;28;20203;-56
2022/03/14 07:49:27;;;;;;;98.40;28.73;;;;;;;;;;5056319;28;20200;-54
2022/03/14 07:51:55;;;;;;;78.67;23.47;;;;;;;;;;5055525;28;20565;-56
2022/03/14 07:54:25;;;;;;;95.07;29.13;;;;;;;;;;5055720;28;20204;-55
2022/03/14 07:56:52;;;;;;;178.07;78.23;;;;;;;;;;5055396;28;20211;-57
2022/03/14 07:59:19;;;;;;;147.50;37.23;;;;;;;;;;5055667;28;20215;-56
2022/03/14 08:01:46;;;;;;;95.37;29.73;;;;;;;;;;5055201;28;20231;-55
2022/03/14 08:04:13;;;;;;;93.90;27.97;;;;;;;;;;5055869;28;20232;-57
2022/03/14 08:06:43;;;;;;;71.33;23.90;;;;;;;;;;5055286;28;20200;-56
2022/03/14 08:09:11;;;;;;;89.27;27.50;;;;;;;;;;5055679;28;20616;-56
2022/03/14 08:11:39;;;;;;;87.87;25.67;;;;;;;;;;5055419;28;20200;-56
2022/03/14 08:14:06;;;;;;;74.50;23.40;;;;;;;;;;5055271;28;20200;-55
2022/03/14 08:16:33;;;;;;;481.97;303.40;;;;;;;;;;5055358;28;20199;-58
2022/03/14 08:19:00;;;;;;;116.97;36.43;;;;;;;;;;5054950;28;20583;-55
2022/03/14 08:21:27;;;;;;;92.47;29.03;;;;;;;;;;5054985;28;20207;-56
2022/03/14 08:23:55;;;;;;;70.07;23.57;;;;;;;;;;5055309;28;20306;-56
2022/03/14 08:26:22;;;;;;;69.73;22.73;;;;;;;;;;5055001;28;20208;-56
2022/03/14 08:28:49;;;;;;;48.63;19.13;;;;;;;;;;5055061;28;20539;-57
2022/03/14 08:31:17;;;;;;;121.27;30.53;;;;;;;;;;5054288;28;20204;-57
2022/03/14 08:33:45;;;;;;;64.00;21.87;;;;;;;;;;5054916;28;20697;-57
2022/03/14 08:36:12;;;;;;;94.73;25.47;;;;;;;;;;5037810;28;20257;-57
2022/03/14 08:38:40;;;;;;;199.20;51.67;;;;;;;;;;5037428;28;20666;-56
2022/03/14 08:41:08;;;;;;;88.93;24.67;;;;;;;;;;5037567;28;20207;-57
2022/03/14 08:43:35;;;;;;;85.03;26.63;;;;;;;;;;5054609;28;20593;-57
2022/03/14 08:46:02;;;;;;;64.07;22.27;;;;;;;;;;5054792;28;20204;-56
2022/03/14 08:48:30;;;;;;;46.10;18.00;;;;;;;;;;5055433;28;20270;-55
2022/03/14 08:50:57;;;;;;;64.53;22.43;;;;;;;;;;5054719;28;20521;-56
2022/03/14 08:53:24;;;;;;;105.00;28.70;;;;;;;;;;5054768;28;20254;-57
2022/03/14 08:55:52;;;;;;;104.97;27.77;;;;;;;;;;5054747;28;20200;-57
2022/03/14 08:58:19;;;;;;;419.43;248.50;;;;;;;;;;5055463;28;20216;-56
2022/03/14 09:00:46;;;;;;;114.90;32.37;;;;;;;;;;5054622;28;20204;-57
2022/03/14 09:03:13;;;;;;;87.40;25.00;;;;;;;;;;5054722;28;20267;-58
2022/03/14 09:05:41;;;;;;;83.83;25.47;;;;;;;;;;5054362;28;20200;-56
2022/03/14 09:08:08;;;;;;;91.77;26.23;;;;;;;;;;5054393;28;20614;-57
2022/03/14 09:10:37;;;;;;;110.23;30.60;;;;;;;;;;5054345;28;20243;-57
2022/03/14 09:13:04;;;;;;;87.13;25.87;;;;;;;;;;5054613;28;20214;-56
2022/03/14 09:15:33;;;;;;;61.77;20.27;;;;;;;;;;5054496;28;20208;-58
2022/03/14 09:18:01;;;;;;;104.10;39.37;;;;;;;;;;5054425;28;20207;-57
2022/03/14 09:20:29;;;;;;;109.23;35.30;;;;;;;;;;5054524;28;20207;-56
2022/03/14 09:22:56;;;;;;;81.67;28.77;;;;;;;;;;5054326;28;20247;-57
2022/03/14 09:25:24;;;;;;;92.50;28.47;;;;;;;;;;5054280;28;20689;-57
2022/03/14 09:27:51;;;;;;;101.43;30.07;;;;;;;;;;5054494;28;20204;-57
2022/03/14 09:30:20;;;;;;;86.27;25.33;;;;;;;;;;5054167;28;20236;-57
2022/03/14 09:32:47;;;;;;;50.10;20.40;;;;;;;;;;5054473;28;20291;-56
2022/03/14 09:35:15;;;;;;;43.20;16.73;;;;;;;;;;5054238;28;20530;-57
2022/03/14 09:37:43;;;;;;;102.60;31.10;;;;;;;;;;5054391;28;20220;-57
2022/03/14 09:40:21;;;;;;;186.23;86.53;;;;;;;;;;5054328;28;20510;-56
2022/03/14 09:42:51;;;;;;;70.50;22.67;;;;;;;;;;5055140;28;20659;-56
2022/03/14 09:45:19;;;;;;;79.80;26.47;;;;;;;;;;5058205;28;20212;-57
2022/03/14 09:47:48;;;;;;;68.67;24.60;;;;;;;;;;5058044;28;20211;-57
2022/03/14 09:50:37;;;;;;;62.97;25.00;;;;;;;;;;5057795;28;20242;-57
2022/03/14 09:53:06;;;;;;;83.20;24.57;;;;;;;;;;5058122;28;20208;-56
2022/03/14 09:55:43;;;;;;;113.47;31.80;;;;;;;;;;5057773;28;20600;-57
2022/03/14 09:58:15;;;;;;;56.80;18.97;;;;;;;;;;5057998;28;20195;-55
2022/03/14 10:00:43;;;;;;;515.77;286.87;;;;;;;;;;5058255;28;20192;-57
2022/03/14 10:03:15;;;;;;;115.53;33.07;;;;;;;;;;5057782;28;20240;-57
2022/03/14 10:05:44;;;;;;;75.83;24.10;;;;;;;;;;5057573;28;20207;-57
2022/03/14 10:08:12;;;;;;;267.53;130.00;;;;;;;;;;5057914;28;20200;-56
2022/03/14 10:10:39;;;;;;;213.40;117.33;;;;;;;;;;5057672;28;20215;-57
2022/03/14 10:13:24;;;;;;;92.90;32.63;;;;;;;;;;5057461;28;20200;-56
2022/03/14 10:15:52;;;;;;;100.30;34.07;;;;;;;;;;5057634;28;20517;-56
2022/03/14 10:18:19;;;;;;;145.63;40.50;;;;;;;;;;5057704;28;20322;-56
2022/03/14 10:20:58;;;;;;;964.63;549.40;;;;;;;;;;5057822;28;20233;-57
2022/03/14 10:23:47;;;;;;;101.97;32.33;;;;;;;;;;5057615;28;20274;-55
2022/03/14 10:26:17;;;;;;;98.17;31.27;;;;;;;;;;5057691;28;20235;-56
2022/03/14 10:28:49;;;;;;;134.03;34.73;;;;;;;;;;5057727;28;20284;-56
2022/03/14 10:31:35;;;;;;;125.60;44.10;;;;;;;;;;5057419;28;20212;-57
2022/03/14 10:34:10;;;;;;;120.80;33.63;;;;;;;;;;5056925;28;20266;-56
2022/03/14 10:36:50;;;;;;;132.60;41.23;;;;;;;;;;5057458;28;20259;-57
2022/03/14 10:39:27;;;;;;;90.60;37.53;;;;;;;;;;5057114;28;20558;-57
2022/03/14 10:42:10;;;;;;;394.10;181.10;;;;;;;;;;5056848;28;20692;-57
2022/03/14 10:44:49;;;;;;;167.07;72.90;;;;;;;;;;5057673;28;20285;-55
2022/03/14 10:47:18;;;;;;;28.13;16.53;;;;;;;;;;5056843;28;20239;-57
2022/03/14 10:49:46;;;;;;;32.87;17.70;;;;;;;;;;5057188;28;20220;-56
2022/03/14 10:52:20;;;;;;;59.53;30.43;;;;;;;;;;5056929;28;20593;-57
2022/03/14 10:54:49;;;;;;;81.13;36.37;;;;;;;;;;5056478;28;20215;-56
2022/03/14 10:57:22;;;;;;;106.77;26.73;;;;;;;;;;5056546;28;20204;-57
2022/03/14 10:59:54;;;;;;;19.23;12.57;;;;;;;;;;5056857;28;20306;-56
2022/03/14 11:02:23;;;;;;;18.73;11.20;;;;;;;;;;5056491;28;20781;-57
2022/03/14 11:04:53;;;;;;;57.63;25.00;;;;;;;;;;5056687;28;20204;-57
2022/03/14 11:07:24;;;;;;;24.97;14.63;;;;;;;;;;5056361;28;20665;-57
2022/03/14 11:09:57;;;;;;;41.03;19.97;;;;;;;;;;5056831;28;20200;-57
2022/03/14 11:12:28;;;;;;;27.03;16.30;;;;;;;;;;5056316;28;20191;-56
2022/03/14 11:14:57;;;;;;;42.33;24.83;;;;;;;;;;5056431;28;20200;-56
2022/03/14 11:17:28;;;;;;;39.57;19.60;;;;;;;;;;5056108;28;20291;-57
2022/03/14 11:19:56;;;;;;;81.50;25.20;;;;;;;;;;5056237;28;20623;-56
2022/03/14 11:22:26;;;;;;;29.03;16.87;;;;;;;;;;5056252;28;20527;-57
2022/03/14 11:25:00;;;;;;;21.00;12.43;;;;;;;;;;5056066;28;20228;-58
2022/03/14 11:27:36;;;;;;;33.50;19.80;;;;;;;;;;5056035;28;20188;-57
2022/03/14 11:30:06;;;;;;;93.77;26.50;;;;;;;;;;5056227;28;20203;-57
2022/03/14 11:32:36;;;;;;;60.87;20.53;;;;;;;;;;5056633;28;20246;-58
2022/03/14 11:35:05;;;;;;;91.90;26.93;;;;;;;;;;5056233;28;20259;-57
2022/03/14 11:37:32;;;;;;;13.87;9.10;;;;;;;;;;5056076;28;20283;-57
2022/03/14 11:40:03;;;;;;;89.03;25.47;;;;;;;;;;5055947;28;20200;-57
2022/03/14 11:42:30;;;;;;;62.63;21.03;;;;;;;;;;5055931;28;20208;-57
2022/03/14 11:45:05;;;;;;;426.50;245.00;;;;;;;;;;5056322;28;20233;-57
2022/03/14 11:47:32;;;;;;;36.23;14.80;;;;;;;;;;5038517;28;20688;-57
2022/03/14 11:50:01;;;;;;;31.40;15.50;;;;;;;;;;5038680;28;20277;-59
2022/03/14 11:52:42;;;;;;;103.47;29.70;;;;;;;;;;5055508;28;20204;-58
2022/03/14 11:55:21;;;;;;;67.10;20.33;;;;;;;;;;5056015;28;20184;-57
2022/03/14 11:57:49;;;;;;;17.47;10.60;;;;;;;;;;5055497;28;20192;-58
2022/03/14 12:00:25;;;;;;;23.40;10.70;;;;;;;;;;5055679;28;20298;-57
2022/03/14 12:03:05;;;;;;;18.53;10.33;;;;;;;;;;5055550;28;20270;-57
2022/03/14 12:05:32;;;;;;;14.60;9.37;;;;;;;;;;5055847;28;20204;-58
2022/03/14 12:08:00;;;;;;;76.77;20.60;;;;;;;;;;5055703;28;20239;-57
2022/03/14 12:10:29;;;;;;;125.50;31.33;;;;;;;;;;5055931;28;20201;-57
2022/03/14 12:12:59;;;;;;;60.42;19.15;;;;;;;;;;5067663;28;20231;-57
2022/03/14 12:15:39;;;;;;;41.13;14.67;;;;;;;;;;5073755;28;20219;-59
2022/03/14 12:18:24;;;;;;;18.40;9.90;;;;;;;;;;5075129;28;20257;-57
2022/03/14 12:20:51;;;;;;;38.93;13.47;;;;;;;;;;5033553;28;20209;-57
2022/03/14 12:23:28;;;;;;;91.07;25.20;;;;;;;;;;5033222;28;20601;-58
2022/03/14 12:26:01;;;;;;;920.83;525.07;;;;;;;;;;5033284;28;20623;-58
2022/03/14 12:28:33;;;;;;;65.60;24.57;;;;;;;;;;5033370;28;20312;-58
2022/03/14 12:31:03;;;;;;;69.87;21.07;;;;;;;;;;5033390;28;20285;-58
2022/03/14 12:33:34;;;;;;;50.33;15.93;;;;;;;;;;5033226;28;20296;-58
2022/03/14 12:36:24;;;;;;;18.70;9.40;;;;;;;;;;4999651;28;20221;-56
2022/03/14 12:39:06;;;;;;;16.27;9.23;;;;;;;;;;5028613;28;20203;-58
2022/03/14 12:41:38;;;;;;;18.70;9.63;;;;;;;;;;5028016;28;20783;-58
2022/03/14 12:44:20;;;;;;;66.38;19.63;;;;;;;;;;5015884;28;20703;-59
2022/03/14 12:46:50;;;;;;;523.93;214.87;;;;;;;;;;5031544;28;20286;-59
2022/03/14 12:49:40;;;;;;;255.00;53.05;;;;;;;;;;5032159;28;20420;-59
2022/03/14 12:52:15;;;;;;;32.10;11.90;;;;;;;;;;5056531;28;20262;-60
2022/03/14 12:54:45;;;;;;;16.90;9.30;;;;;;;;;;5073723;28;20243;-57
2022/03/14 12:57:14;;;;;;;33.37;12.03;;;;;;;;;;5056747;28;20670;-59
2022/03/14 12:59:48;;;;;;;29.37;12.83;;;;;;;;;;5071503;28;20216;-59
2022/03/14 13:02:25;;;;;;;48.40;15.20;;;;;;;;;;5088413;28;20323;-58
2022/03/14 13:05:01;;;;;;;102.32;27.35;;;;;;;;;;5074230;28;20265;-58
2022/03/14 13:07:30;;;;;;;959.50;482.27;;;;;;;;;;5074366;28;20260;-58
2022/03/14 13:09:58;;;;;;;201.33;43.10;;;;;;;;;;5074514;28;20203;-56
2022/03/14 13:12:26;;;;;;;80.27;21.77;;;;;;;;;;5074234;28;20218;-58
2022/03/14 13:15:06;;;;;;;40.37;14.60;;;;;;;;;;5074203;28;20211;-58
2022/03/14 13:17:46;;;;;;;34.50;12.97;;;;;;;;;;5075970;28;20209;-58
2022/03/14 13:20:26;;;;;;;11.77;7.97;;;;;;;;;;5078645;28;20211;-58
2022/03/14 13:22:55;;;;;;;74.70;23.70;;;;;;;;;;5062369;28;20543;-58
2022/03/14 13:25:34;;;;;;;30.85;12.52;;;;;;;;;;5078349;28;20228;-58
2022/03/14 13:28:02;;;;;;;1999.90;886.95;;;;;;;;;;5078304;28;20226;-58
2022/03/14 13:30:43;;;;;;;296.35;76.78;;;;;;;;;;5027870;28;20242;-58
2022/03/14 13:33:35;;;;;;;169.75;42.65;;;;;;;;;;5072714;28;20618;-60
2022/03/14 13:36:05;;;;;;;64.78;19.05;;;;;;;;;;5086559;28;20565;-58
2022/03/14 13:38:35;;;;;;;119.97;31.02;;;;;;;;;;5074313;28;20236;-57
2022/03/14 13:41:09;;;;;;;59.58;17.80;;;;;;;;;;5057076;28;20294;-59
2022/03/14 13:43:45;;;;;;;25.33;10.13;;;;;;;;;;5073353;28;20250;-56
2022/03/14 13:46:32;;;;;;;68.50;18.73;;;;;;;;;;5075881;28;20284;-58
2022/03/14 13:49:11;;;;;;;914.60;439.97;;;;;;;;;;5073305;28;20677;-58
2022/03/14 13:51:41;;;;;;;85.68;25.70;;;;;;;;;;5065771;28;20673;-59
2022/03/14 13:54:10;;;;;;;17.43;8.30;;;;;;;;;;5076015;28;20243;-58
2022/03/14 13:56:47;;;;;;;13.30;8.67;;;;;;;;;;5071161;28;20231;-58
2022/03/14 13:59:25;;;;;;;84.55;25.27;;;;;;;;;;5075114;28;20254;-57
2022/03/14 14:01:54;;;;;;;47.00;16.25;;;;;;;;;;5071927;28;20677;-61
2022/03/14 14:04:27;;;;;;;36.45;14.48;;;;;;;;;;5073611;28;20286;-57
2022/03/14 14:07:13;;;;;;;96.50;28.45;;;;;;;;;;5076622;28;20253;-57
2022/03/14 14:10:10;;;;;;;1074.82;498.48;;;;;;;;;;5076121;28;20314;-57
2022/03/14 14:12:37;;;;;;;155.02;36.55;;;;;;;;;;5059342;28;20280;-57
2022/03/14 14:15:07;;;;;;;161.20;37.67;;;;;;;;;;5077738;28;20296;-58
2022/03/14 14:17:51;;;;;;;48.92;15.65;;;;;;;;;;5074563;28;20555;-58
2022/03/14 14:20:20;;;;;;;44.03;15.77;;;;;;;;;;5074323;28;20254;-57
2022/03/14 14:22:53;;;;;;;51.42;18.77;;;;;;;;;;5074896;28;20325;-56
2022/03/14 14:25:29;;;;;;;90.68;25.42;;;;;;;;;;5073378;28;20286;-55
2022/03/14 14:28:05;;;;;;;88.70;25.83;;;;;;;;;;5074664;28;20220;-56